Time,TemperatureF,DewpointF,PressureIn,WindDirection,WindDirectionDegrees,WindSpeedMPH,WindSpeedGustMPH,Humidity,HourlyPrecipIn,Conditions,Clouds,dailyrainin,SoftwareType,DateUTC
2013-01-20 00:00:00,34.2,27.4,29.82,ENE,68,0.0,0.0,76,0.00,,---,0.00,VWS V14.00,2013-01-20 05:00:00,
2013-01-20 00:01:00,34.3,27.6,29.82,ENE,68,0.0,0.0,76,0.00,,---,0.00,VWS V14.00,2013-01-20 05:01:00,
2013-01-20 00:03:00,34.7,27.9,29.82,ENE,68,0.0,0.0,76,0.00,,---,0.00,VWS V14.00,2013-01-20 05:03:00,
2013-01-20 00:08:00,34.7,27.9,29.82,ENE,68,0.0,0.0,76,0.00,,---,0.00,VWS V14.00,2013-01-20 05:08:00,
2013-01-20 00:13:00,35.1,28.0,29.82,ENE,68,0.0,0.0,75,0.00,,---,0.00,VWS V14.00,2013-01-20 05:13:00,
2013-01-20 00:18:00,35.6,28.1,29.82,ENE,68,0.0,0.0,74,0.00,,---,0.00,VWS V14.00,2013-01-20 05:18:00,
2013-01-20 00:23:00,35.4,28.0,29.82,ENE,68,0.0,0.0,74,0.00,,---,0.00,VWS V14.00,2013-01-20 05:23:00,
2013-01-20 00:28:00,35.1,27.6,29.82,ENE,68,0.0,0.0,74,0.00,,---,0.00,VWS V14.00,2013-01-20 05:28:00,
2013-01-20 00:33:00,34.9,27.1,29.82,ENE,68,0.0,0.0,73,0.00,,---,0.00,VWS V14.00,2013-01-20 05:33:00,
2013-01-20 00:38:00,35.1,27.3,29.82,ENE,68,0.0,0.0,73,0.00,,---,0.00,VWS V14.00,2013-01-20 05:38:00,
2013-01-20 00:43:00,35.2,27.5,29.82,ENE,68,0.0,0.0,73,0.00,,---,0.00,VWS V14.00,2013-01-20 05:43:00,
2013-01-20 00:48:00,35.4,27.6,29.82,ENE,68,0.0,0.0,73,0.00,,---,0.00,VWS V14.00,2013-01-20 05:48:00,
2013-01-20 00:53:00,35.4,27.6,29.82,ENE,68,0.0,0.0,73,0.00,,---,0.00,VWS V14.00,2013-01-20 05:53:00,
2013-01-20 00:58:00,35.6,27.5,29.82,ENE,68,0.0,0.0,72,0.00,,---,0.00,VWS V14.00,2013-01-20 05:58:00,
2013-01-20 01:03:00,35.4,27.3,29.82,ENE,68,0.0,0.0,72,0.00,,---,0.00,VWS V14.00,2013-01-20 06:03:00,
2013-01-20 01:08:00,35.6,27.5,29.79,ENE,68,0.0,0.0,72,0.00,,---,0.00,VWS V14.00,2013-01-20 06:08:00,
2013-01-20 01:13:00,35.8,27.6,29.79,ENE,68,0.0,0.0,72,0.00,,---,0.00,VWS V14.00,2013-01-20 06:13:00,
2013-01-20 01:18:00,35.8,27.6,29.79,ENE,68,0.0,0.0,72,0.00,,---,0.00,VWS V14.00,2013-01-20 06:18:00,
2013-01-20 01:23:00,35.8,27.6,29.79,ENE,68,0.0,0.0,72,0.00,,---,0.00,VWS V14.00,2013-01-20 06:23:00,
2013-01-20 01:28:00,36.5,27.7,29.79,ENE,68,0.0,0.0,70,0.00,,---,0.00,VWS V14.00,2013-01-20 06:28:00,
2013-01-20 01:33:00,36.5,27.7,29.79,ENE,68,0.0,0.0,70,0.00,,---,0.00,VWS V14.00,2013-01-20 06:33:00,
2013-01-20 01:38:00,36.5,27.7,29.79,ENE,68,0.0,0.0,70,0.00,,---,0.00,VWS V14.00,2013-01-20 06:38:00,
2013-01-20 01:43:00,36.5,27.7,29.79,ENE,68,0.0,0.0,70,0.00,,---,0.00,VWS V14.00,2013-01-20 06:43:00,
2013-01-20 01:48:00,35.8,26.6,29.79,ENE,68,0.0,0.0,69,0.00,,---,0.00,VWS V14.00,2013-01-20 06:48:00,
2013-01-20 01:53:00,35.8,26.6,29.79,ENE,68,0.0,0.0,69,0.00,,---,0.00,VWS V14.00,2013-01-20 06:53:00,
2013-01-20 01:58:00,34.9,25.8,29.79,ENE,68,0.0,0.0,69,0.00,,---,0.00,VWS V14.00,2013-01-20 06:58:00,
2013-01-20 02:03:00,34.7,25.9,29.79,ENE,68,0.0,0.0,70,0.00,,---,0.00,VWS V14.00,2013-01-20 07:03:00,
2013-01-20 02:08:00,34.5,25.8,29.79,ENE,68,0.0,0.0,70,0.00,,---,0.00,VWS V14.00,2013-01-20 07:08:00,
2013-01-20 02:13:00,34.3,25.6,29.79,ENE,68,0.0,0.0,70,0.00,,---,0.00,VWS V14.00,2013-01-20 07:13:00,
2013-01-20 02:18:00,34.2,25.4,29.79,ENE,68,0.0,0.0,70,0.00,,---,0.00,VWS V14.00,2013-01-20 07:18:00,
2013-01-20 02:23:00,34.3,25.9,29.76,ENE,68,0.0,0.0,71,0.00,,---,0.00,VWS V14.00,2013-01-20 07:23:00,
2013-01-20 02:28:00,34.3,25.9,29.76,ENE,68,0.0,0.0,71,0.00,,---,0.00,VWS V14.00,2013-01-20 07:28:00,
2013-01-20 02:33:00,34.2,25.8,29.76,ENE,68,0.0,0.0,71,0.00,,---,0.00,VWS V14.00,2013-01-20 07:33:00,
2013-01-20 02:38:00,34.3,26.3,29.79,ENE,68,0.0,0.0,72,0.00,,---,0.00,VWS V14.00,2013-01-20 07:38:00,
2013-01-20 02:43:00,34.5,26.4,29.79,ENE,68,0.0,0.0,72,0.00,,---,0.00,VWS V14.00,2013-01-20 07:43:00,
2013-01-20 02:48:00,34.3,26.3,29.79,ENE,68,0.0,0.0,72,0.00,,---,0.00,VWS V14.00,2013-01-20 07:48:00,
2013-01-20 02:53:00,35.1,27.0,29.79,ENE,68,0.0,0.0,72,0.00,,---,0.00,VWS V14.00,2013-01-20 07:53:00,
2013-01-20 02:58:00,35.1,27.0,29.79,ENE,68,0.0,0.0,72,0.00,,---,0.00,VWS V14.00,2013-01-20 07:58:00,
2013-01-20 03:03:00,34.7,26.6,29.79,ENE,68,0.0,0.0,72,0.00,,---,0.00,VWS V14.00,2013-01-20 08:03:00,
2013-01-20 03:08:00,34.5,26.8,29.76,ENE,68,0.0,0.0,73,0.00,,---,0.00,VWS V14.00,2013-01-20 08:08:00,
2013-01-20 03:13:00,34.9,27.1,29.76,ENE,68,0.0,0.0,73,0.00,,---,0.00,VWS V14.00,2013-01-20 08:13:00,
2013-01-20 03:18:00,34.9,27.5,29.76,ENE,68,0.0,0.0,74,0.00,,---,0.00,VWS V14.00,2013-01-20 08:18:00,
2013-01-20 03:23:00,34.9,27.5,29.76,ENE,68,0.0,0.0,74,0.00,,---,0.00,VWS V14.00,2013-01-20 08:23:00,
2013-01-20 03:28:00,34.9,27.5,29.76,ENE,68,0.0,0.0,74,0.00,,---,0.00,VWS V14.00,2013-01-20 08:28:00,
2013-01-20 03:33:00,35.1,27.6,29.76,ENE,68,0.0,0.0,74,0.00,,---,0.00,VWS V14.00,2013-01-20 08:33:00,
2013-01-20 03:38:00,35.1,27.6,29.76,ENE,68,0.0,0.0,74,0.00,,---,0.00,VWS V14.00,2013-01-20 08:38:00,
2013-01-20 03:43:00,34.7,27.3,29.76,ENE,68,0.0,0.0,74,0.00,,---,0.00,VWS V14.00,2013-01-20 08:43:00,
2013-01-20 03:48:00,34.3,26.9,29.76,ENE,68,0.0,0.0,74,0.00,,---,0.00,VWS V14.00,2013-01-20 08:48:00,
2013-01-20 03:53:00,34.0,26.6,29.74,ENE,68,0.0,0.0,74,0.00,,---,0.00,VWS V14.00,2013-01-20 08:53:00,
2013-01-20 03:58:00,33.6,26.2,29.74,ENE,68,0.0,0.0,74,0.00,,---,0.00,VWS V14.00,2013-01-20 08:58:00,
2013-01-20 04:03:00,33.4,26.4,29.74,ENE,68,0.0,0.0,75,0.00,,---,0.00,VWS V14.00,2013-01-20 09:03:00,
2013-01-20 04:08:00,33.1,26.0,29.74,ENE,68,0.0,0.0,75,0.00,,---,0.00,VWS V14.00,2013-01-20 09:08:00,
2013-01-20 04:13:00,32.9,25.9,29.74,ENE,68,0.0,0.0,75,0.00,,---,0.00,VWS V14.00,2013-01-20 09:13:00,
2013-01-20 04:17:00,32.7,26.0,29.74,ENE,68,0.0,0.0,76,0.00,,---,0.00,VWS V14.00,2013-01-20 09:17:00,
2013-01-20 04:22:00,32.7,26.0,29.74,ENE,68,0.0,0.0,76,0.00,,---,0.00,VWS V14.00,2013-01-20 09:22:00,
2013-01-20 04:27:00,32.5,25.8,29.74,ENE,68,0.0,0.0,76,0.00,,---,0.00,VWS V14.00,2013-01-20 09:27:00,
2013-01-20 04:32:00,32.5,25.8,29.74,ENE,68,0.0,0.0,76,0.00,,---,0.00,VWS V14.00,2013-01-20 09:32:00,
2013-01-20 04:37:00,32.7,26.3,29.74,ENE,68,0.0,0.0,77,0.00,,---,0.00,VWS V14.00,2013-01-20 09:37:00,
2013-01-20 04:42:00,32.5,26.1,29.74,ENE,68,0.0,0.0,77,0.00,,---,0.00,VWS V14.00,2013-01-20 09:42:00,
2013-01-20 04:47:00,32.0,25.6,29.74,ENE,68,0.0,0.0,77,0.00,,---,0.00,VWS V14.00,2013-01-20 09:47:00,
2013-01-20 04:52:00,31.8,25.4,29.71,ENE,68,0.0,0.0,77,0.00,,---,0.00,VWS V14.00,2013-01-20 09:52:00,
2013-01-20 04:57:00,31.3,24.9,29.71,ENE,68,0.0,0.0,77,0.00,,---,0.00,VWS V14.00,2013-01-20 09:57:00,
2013-01-20 05:02:00,31.1,24.8,29.71,ENE,68,0.0,0.0,77,0.00,,---,0.00,VWS V14.00,2013-01-20 10:02:00,
2013-01-20 05:07:00,30.9,24.6,29.71,ENE,68,0.0,0.0,77,0.00,,---,0.00,VWS V14.00,2013-01-20 10:07:00,
2013-01-20 05:12:00,30.6,24.5,29.71,ENE,68,0.0,0.0,78,0.00,,---,0.00,VWS V14.00,2013-01-20 10:12:00,
2013-01-20 05:17:00,30.4,24.4,29.71,ENE,68,0.0,0.0,78,0.00,,---,0.00,VWS V14.00,2013-01-20 10:17:00,
2013-01-20 05:22:00,30.4,24.4,29.71,ENE,68,0.0,0.0,78,0.00,,---,0.00,VWS V14.00,2013-01-20 10:22:00,
2013-01-20 05:27:00,30.7,25.0,29.71,ENE,68,0.0,0.0,79,0.00,,---,0.00,VWS V14.00,2013-01-20 10:27:00,
2013-01-20 05:32:00,30.9,25.2,29.71,ENE,68,0.0,0.0,79,0.00,,---,0.00,VWS V14.00,2013-01-20 10:32:00,
2013-01-20 05:37:00,30.9,25.5,29.68,ENE,68,0.0,0.0,80,0.00,,---,0.00,VWS V14.00,2013-01-20 10:37:00,
2013-01-20 05:42:00,30.7,25.3,29.68,ENE,68,0.0,0.0,80,0.00,,---,0.00,VWS V14.00,2013-01-20 10:42:00,
2013-01-20 05:47:00,30.9,25.5,29.68,ENE,68,0.0,0.0,80,0.00,,---,0.00,VWS V14.00,2013-01-20 10:47:00,
2013-01-20 05:52:00,31.3,26.1,29.68,ENE,68,0.0,0.0,81,0.00,,---,0.00,VWS V14.00,2013-01-20 10:52:00,
2013-01-20 05:57:00,31.3,26.1,29.68,ENE,68,0.0,0.0,81,0.00,,---,0.00,VWS V14.00,2013-01-20 10:57:00,
2013-01-20 06:02:00,31.3,26.1,29.68,ENE,68,0.0,0.0,81,0.00,,---,0.00,VWS V14.00,2013-01-20 11:02:00,
2013-01-20 06:07:00,31.6,26.5,29.68,ENE,68,0.0,0.0,81,0.00,,---,0.00,VWS V14.00,2013-01-20 11:07:00,
2013-01-20 06:12:00,32.0,26.8,29.68,ENE,68,0.0,0.0,81,0.00,,---,0.00,VWS V14.00,2013-01-20 11:12:00,
2013-01-20 06:17:00,32.0,26.8,29.68,ENE,68,0.0,0.0,81,0.00,,---,0.00,VWS V14.00,2013-01-20 11:17:00,
2013-01-20 06:22:00,32.0,26.8,29.68,ENE,68,0.0,0.0,81,0.00,,---,0.00,VWS V14.00,2013-01-20 11:22:00,
2013-01-20 06:27:00,32.0,26.5,29.68,ENE,68,0.0,0.0,80,0.00,,---,0.00,VWS V14.00,2013-01-20 11:27:00,
2013-01-20 06:32:00,31.8,26.4,29.68,ENE,68,0.0,0.0,80,0.00,,---,0.00,VWS V14.00,2013-01-20 11:32:00,
2013-01-20 06:37:00,31.6,26.2,29.68,ENE,68,0.0,0.0,80,0.00,,---,0.00,VWS V14.00,2013-01-20 11:37:00,
2013-01-20 06:42:00,31.3,25.8,29.68,ENE,68,0.0,0.0,80,0.00,,---,0.00,VWS V14.00,2013-01-20 11:42:00,
2013-01-20 06:47:00,31.1,25.7,29.68,ENE,68,0.0,0.0,80,0.00,,---,0.00,VWS V14.00,2013-01-20 11:47:00,
2013-01-20 06:52:00,31.1,25.7,29.68,ENE,68,0.0,0.0,80,0.00,,---,0.00,VWS V14.00,2013-01-20 11:52:00,
2013-01-20 06:57:00,30.9,25.8,29.65,ENE,68,0.0,0.0,81,0.00,,---,0.00,VWS V14.00,2013-01-20 11:57:00,
2013-01-20 07:02:00,30.9,25.8,29.65,ENE,68,0.0,0.0,81,0.00,,---,0.00,VWS V14.00,2013-01-20 12:02:00,
2013-01-20 07:07:00,30.9,25.8,29.65,ENE,68,0.0,0.0,81,0.00,,---,0.00,VWS V14.00,2013-01-20 12:07:00,
2013-01-20 07:12:00,30.7,25.6,29.65,ENE,68,0.0,0.0,81,0.00,,---,0.00,VWS V14.00,2013-01-20 12:12:00,
2013-01-20 07:17:00,30.6,25.4,29.65,ENE,68,0.0,0.0,81,0.00,,---,0.00,VWS V14.00,2013-01-20 12:17:00,
2013-01-20 07:22:00,30.2,25.4,29.65,ENE,68,0.0,0.0,82,0.00,,---,0.00,VWS V14.00,2013-01-20 12:22:00,
2013-01-20 07:27:00,30.0,25.2,29.65,ENE,68,0.0,0.0,82,0.00,,---,0.00,VWS V14.00,2013-01-20 12:27:00,
2013-01-20 07:32:00,30.2,25.4,29.65,ENE,68,0.0,0.0,82,0.00,,---,0.00,VWS V14.00,2013-01-20 12:32:00,
2013-01-20 07:37:00,30.2,25.4,29.65,ENE,68,0.0,0.0,82,0.00,,---,0.00,VWS V14.00,2013-01-20 12:37:00,
2013-01-20 07:42:00,30.4,25.5,29.65,ENE,68,0.0,0.0,82,0.00,,---,0.00,VWS V14.00,2013-01-20 12:42:00,
2013-01-20 07:47:00,30.7,25.9,29.65,ENE,68,0.0,0.0,82,0.00,,---,0.00,VWS V14.00,2013-01-20 12:47:00,
2013-01-20 07:52:00,30.9,26.1,29.65,ENE,68,0.0,0.0,82,0.00,,---,0.00,VWS V14.00,2013-01-20 12:52:00,
2013-01-20 07:57:00,31.1,26.3,29.65,ENE,68,0.0,0.0,82,0.00,,---,0.00,VWS V14.00,2013-01-20 12:57:00,
2013-01-20 08:02:00,31.6,27.1,29.65,ENE,68,0.0,0.0,83,0.00,,---,0.00,VWS V14.00,2013-01-20 13:02:00,
2013-01-20 08:07:00,32.5,28.0,29.65,ENE,68,0.0,0.0,83,0.00,,---,0.00,VWS V14.00,2013-01-20 13:07:00,
2013-01-20 08:12:00,34.2,29.0,29.65,ENE,68,0.0,0.0,81,0.00,,---,0.00,VWS V14.00,2013-01-20 13:12:00,
2013-01-20 08:17:00,35.2,28.8,29.65,ENE,68,0.0,0.0,77,0.00,,---,0.00,VWS V14.00,2013-01-20 13:17:00,
2013-01-20 08:22:00,36.3,28.2,29.65,ENE,68,0.0,0.0,72,0.00,,---,0.00,VWS V14.00,2013-01-20 13:22:00,
2013-01-20 08:27:00,37.8,28.5,29.68,ENE,68,0.0,0.0,69,0.00,,---,0.00,VWS V14.00,2013-01-20 13:27:00,
2013-01-20 08:32:00,39.2,28.1,29.68,ENE,68,0.0,0.0,64,0.00,,---,0.00,VWS V14.00,2013-01-20 13:32:00,
2013-01-20 08:37:00,40.8,29.6,29.68,ENE,68,0.0,0.0,64,0.00,,---,0.00,VWS V14.00,2013-01-20 13:37:00,
2013-01-20 08:42:00,40.6,26.6,29.68,ENE,68,0.0,0.0,57,0.00,,---,0.00,VWS V14.00,2013-01-20 13:42:00,
2013-01-20 08:47:00,41.0,27.0,29.68,ENE,68,0.0,0.0,57,0.00,,---,0.00,VWS V14.00,2013-01-20 13:47:00,
2013-01-20 08:52:00,41.2,26.7,29.68,ENE,68,0.0,0.0,56,0.00,,---,0.00,VWS V14.00,2013-01-20 13:52:00,
2013-01-20 08:57:00,41.9,26.5,29.68,ENE,68,0.0,0.0,54,0.00,,---,0.00,VWS V14.00,2013-01-20 13:57:00,
2013-01-20 09:02:00,42.3,26.8,29.68,ENE,68,0.0,0.0,54,0.00,,---,0.00,VWS V14.00,2013-01-20 14:02:00,
2013-01-20 09:07:00,42.4,26.1,29.68,ENE,68,0.0,0.0,52,0.00,,---,0.00,VWS V14.00,2013-01-20 14:07:00,
2013-01-20 09:12:00,42.4,26.1,29.68,ENE,68,0.0,0.0,52,0.00,,---,0.00,VWS V14.00,2013-01-20 14:12:00,
2013-01-20 09:17:00,42.8,26.4,29.68,ENE,68,0.0,0.0,52,0.00,,---,0.00,VWS V14.00,2013-01-20 14:17:00,
2013-01-20 09:22:00,43.2,26.7,29.68,ENE,68,0.0,0.0,52,0.00,,---,0.00,VWS V14.00,2013-01-20 14:22:00,
2013-01-20 09:27:00,43.5,26.6,29.68,ENE,68,0.0,0.0,51,0.00,,---,0.00,VWS V14.00,2013-01-20 14:27:00,
2013-01-20 09:32:00,44.1,26.6,29.68,ENE,68,0.0,0.0,50,0.00,,---,0.00,VWS V14.00,2013-01-20 14:32:00,
2013-01-20 09:37:00,44.4,27.0,29.68,ENE,68,0.0,0.0,50,0.00,,---,0.00,VWS V14.00,2013-01-20 14:37:00,
2013-01-20 09:42:00,44.8,26.8,29.68,ENE,68,0.0,0.0,49,0.00,,---,0.00,VWS V14.00,2013-01-20 14:42:00,
2013-01-20 09:47:00,45.0,27.0,29.68,ENE,68,0.0,0.0,49,0.00,,---,0.00,VWS V14.00,2013-01-20 14:47:00,
2013-01-20 09:52:00,45.3,27.3,29.68,ENE,68,0.0,0.0,49,0.00,,---,0.00,VWS V14.00,2013-01-20 14:52:00,
2013-01-20 09:57:00,45.9,27.8,29.68,ENE,68,0.0,0.0,49,0.00,,---,0.00,VWS V14.00,2013-01-20 14:57:00,
2013-01-20 10:02:00,45.9,27.3,29.68,ENE,68,0.0,0.0,48,0.00,,---,0.00,VWS V14.00,2013-01-20 15:02:00,
2013-01-20 10:07:00,46.0,27.5,29.68,ENE,68,0.0,0.0,48,0.00,,---,0.00,VWS V14.00,2013-01-20 15:07:00,
2013-01-20 10:12:00,46.6,28.0,29.68,ENE,68,0.0,0.0,48,0.00,,---,0.00,VWS V14.00,2013-01-20 15:12:00,
2013-01-20 10:17:00,46.6,28.0,29.68,ENE,68,0.0,0.0,48,0.00,,---,0.00,VWS V14.00,2013-01-20 15:17:00,
2013-01-20 10:22:00,46.6,28.0,29.68,ENE,68,0.0,0.0,48,0.00,,---,0.00,VWS V14.00,2013-01-20 15:22:00,
2013-01-20 10:27:00,46.6,28.0,29.68,ENE,68,0.0,0.0,48,0.00,,---,0.00,VWS V14.00,2013-01-20 15:27:00,
2013-01-20 10:32:00,46.6,28.0,29.68,ENE,68,0.0,0.0,48,0.00,,---,0.00,VWS V14.00,2013-01-20 15:32:00,
2013-01-20 10:37:00,46.6,28.0,29.68,ENE,68,0.0,0.0,48,0.00,,---,0.00,VWS V14.00,2013-01-20 15:37:00,
2013-01-20 10:42:00,46.6,28.0,29.65,ENE,68,0.0,0.0,48,0.00,,---,0.00,VWS V14.00,2013-01-20 15:42:00,
2013-01-20 10:47:00,46.6,28.0,29.65,ENE,68,0.0,0.0,48,0.04,,---,0.04,VWS V14.00,2013-01-20 15:47:00,
2013-01-20 10:52:00,46.6,28.0,29.65,ENE,68,0.0,0.0,48,0.04,,---,0.04,VWS V14.00,2013-01-20 15:52:00,
2013-01-20 10:57:00,46.6,28.0,29.65,ENE,68,0.0,0.0,48,0.04,,---,0.04,VWS V14.00,2013-01-20 15:57:00,
2013-01-20 11:02:00,46.6,28.0,29.65,ENE,68,0.0,0.0,48,0.04,,---,0.04,VWS V14.00,2013-01-20 16:02:00,
2013-01-20 11:07:00,46.6,28.0,29.65,ENE,68,0.0,0.0,48,0.04,,---,0.04,VWS V14.00,2013-01-20 16:07:00,
2013-01-20 11:12:00,46.6,28.0,29.65,ENE,68,0.0,0.0,48,0.00,,---,0.04,VWS V14.00,2013-01-20 16:12:00,
2013-01-20 11:17:00,46.6,28.0,29.65,ENE,68,0.0,0.0,48,0.00,,---,0.04,VWS V14.00,2013-01-20 16:17:00,
2013-01-20 11:22:00,46.6,28.0,29.65,ENE,68,0.0,0.0,48,0.00,,---,0.04,VWS V14.00,2013-01-20 16:22:00,
2013-01-20 11:27:00,46.6,28.0,29.65,ENE,68,0.0,0.0,48,0.00,,---,0.04,VWS V14.00,2013-01-20 16:27:00,
2013-01-20 11:32:00,46.6,28.0,29.65,ENE,68,0.0,0.0,48,0.00,,---,0.04,VWS V14.00,2013-01-20 16:32:00,
2013-01-20 11:37:00,46.6,28.0,29.65,ENE,68,0.0,0.0,48,0.00,,---,0.04,VWS V14.00,2013-01-20 16:37:00,
2013-01-20 11:42:00,46.6,28.0,29.62,ENE,68,0.0,0.0,48,0.00,,---,0.04,VWS V14.00,2013-01-20 16:42:00,
2013-01-20 11:47:00,46.6,28.0,29.62,ENE,68,0.0,0.0,48,0.00,,---,0.04,VWS V14.00,2013-01-20 16:47:00,
2013-01-20 11:52:00,46.6,28.0,29.62,ENE,68,0.0,0.0,48,0.00,,---,0.04,VWS V14.00,2013-01-20 16:52:00,
2013-01-20 11:57:00,46.6,28.0,29.62,ENE,68,0.0,0.0,48,0.00,,---,0.04,VWS V14.00,2013-01-20 16:57:00,
2013-01-20 12:35:00,77.5,53.9,29.59,WSW,248,9.8,9.8,44,0.00,,---,0.04,VWS V14.00,2013-01-20 17:35:00,
2013-01-20 12:40:00,74.5,35.4,29.62,WSW,248,9.8,9.8,24,0.04,,---,0.08,VWS V14.00,2013-01-20 17:40:00,
2013-01-20 12:45:00,61.3,27.1,29.62,SSE,158,3.6,7.8,27,0.04,,---,0.08,VWS V14.00,2013-01-20 17:45:00,
2013-01-20 12:50:00,57.0,27.5,29.62,SSW,202,3.4,4.0,32,0.04,,---,0.08,VWS V14.00,2013-01-20 17:50:00,
2013-01-20 12:55:00,54.3,27.3,29.59,West,270,1.1,2.9,35,0.04,,---,0.08,VWS V14.00,2013-01-20 17:55:00,
2013-01-20 13:00:00,52.5,26.4,29.59,WSW,248,7.8,7.8,36,0.04,,---,0.08,VWS V14.00,2013-01-20 18:00:00,
2013-01-20 13:05:00,50.9,25.6,29.59,WSW,248,8.1,8.1,37,0.04,,---,0.08,VWS V14.00,2013-01-20 18:05:00,
2013-01-20 13:10:00,50.2,24.9,29.62,SSE,158,8.5,8.5,37,0.00,,---,0.08,VWS V14.00,2013-01-20 18:10:00,
2013-01-20 13:15:00,49.1,24.6,29.62,SSW,202,2.5,2.5,38,0.00,,---,0.08,VWS V14.00,2013-01-20 18:15:00,
2013-01-20 13:20:00,48.4,24.6,29.62,SW,225,0.0,1.3,39,0.00,,---,0.08,VWS V14.00,2013-01-20 18:20:00,
2013-01-20 13:25:00,48.0,24.3,29.62,SSE,158,2.9,2.9,39,0.00,,---,0.08,VWS V14.00,2013-01-20 18:25:00,
2013-01-20 13:30:00,47.7,24.5,29.62,SSE,158,5.6,5.6,40,0.00,,---,0.08,VWS V14.00,2013-01-20 18:30:00,
2013-01-20 13:35:00,47.5,24.4,29.62,SSW,202,4.9,4.9,40,0.00,,---,0.08,VWS V14.00,2013-01-20 18:35:00,
2013-01-20 13:40:00,47.3,24.2,29.62,SE,135,2.5,2.5,40,0.00,,---,0.08,VWS V14.00,2013-01-20 18:40:00,
2013-01-20 13:45:00,46.4,24.6,29.62,NE,45,2.5,2.5,42,0.00,,---,0.08,VWS V14.00,2013-01-20 18:45:00,
2013-01-20 13:50:00,45.7,25.0,29.62,NE,45,2.5,3.4,44,0.00,,---,0.08,VWS V14.00,2013-01-20 18:50:00,
2013-01-20 13:55:00,45.1,24.5,29.62,SSE,158,3.1,3.1,44,0.00,,---,0.08,VWS V14.00,2013-01-20 18:55:00,
2013-01-20 14:00:00,45.7,26.1,29.62,South,180,4.0,4.0,46,0.00,,---,0.08,VWS V14.00,2013-01-20 19:00:00,
2013-01-20 14:05:00,46.2,26.6,29.62,SSW,202,2.0,2.0,46,0.00,,---,0.08,VWS V14.00,2013-01-20 19:05:00,
2013-01-20 14:10:00,45.7,26.1,29.65,NE,45,2.0,4.0,46,0.00,,---,0.08,VWS V14.00,2013-01-20 19:10:00,
2013-01-20 14:15:00,46.4,26.2,29.65,SSW,202,1.1,2.0,45,0.00,,---,0.08,VWS V14.00,2013-01-20 19:15:00,
2013-01-20 14:20:00,47.3,27.0,29.65,SSE,158,2.2,2.2,45,0.00,,---,0.08,VWS V14.00,2013-01-20 19:20:00,
2013-01-20 14:25:00,46.8,26.6,29.65,SW,225,1.1,1.1,45,0.00,,---,0.08,VWS V14.00,2013-01-20 19:25:00,
2013-01-20 14:30:00,46.6,26.4,29.65,South,180,3.1,4.0,45,0.00,,---,0.08,VWS V14.00,2013-01-20 19:30:00,
2013-01-20 14:35:00,46.8,26.0,29.65,ENE,68,2.7,2.7,44,0.00,,---,0.08,VWS V14.00,2013-01-20 19:35:00,
2013-01-20 14:40:00,47.1,26.3,29.65,ESE,112,1.1,1.3,44,0.00,,---,0.08,VWS V14.00,2013-01-20 19:40:00,
2013-01-20 14:45:00,47.7,26.8,29.65,WNW,292,2.7,3.8,44,0.00,,---,0.08,VWS V14.00,2013-01-20 19:45:00,
2013-01-20 14:50:00,47.5,26.1,29.65,SE,135,0.0,1.6,43,0.00,,---,0.08,VWS V14.00,2013-01-20 19:50:00,
2013-01-20 14:55:00,47.3,26.0,29.68,SSW,202,3.6,5.8,43,0.00,,---,0.08,VWS V14.00,2013-01-20 19:55:00,
2013-01-20 15:00:00,46.8,24.9,29.68,SE,135,2.5,2.5,42,0.00,,---,0.08,VWS V14.00,2013-01-20 20:00:00,
2013-01-20 15:05:00,46.6,24.7,29.68,South,180,3.6,3.6,42,0.00,,---,0.08,VWS V14.00,2013-01-20 20:05:00,
2013-01-20 15:10:00,46.4,24.6,29.68,SE,135,2.7,2.7,42,0.00,,---,0.08,VWS V14.00,2013-01-20 20:10:00,
2013-01-20 15:15:00,46.4,24.6,29.68,SW,225,1.3,2.7,42,0.00,,---,0.08,VWS V14.00,2013-01-20 20:15:00,
2013-01-20 15:20:00,46.4,24.0,29.68,SE,135,2.0,7.6,41,0.00,,---,0.08,VWS V14.00,2013-01-20 20:20:00,
2013-01-20 15:25:00,46.4,24.0,29.68,SSE,158,4.3,4.3,41,0.00,,---,0.08,VWS V14.00,2013-01-20 20:25:00,
2013-01-20 15:30:00,46.4,24.0,29.68,WSW,248,3.4,6.0,41,0.00,,---,0.08,VWS V14.00,2013-01-20 20:30:00,
2013-01-20 15:35:00,46.0,24.2,29.68,SSW,202,2.9,2.9,42,0.00,,---,0.08,VWS V14.00,2013-01-20 20:35:00,
2013-01-20 15:40:00,45.7,23.9,29.68,SSE,158,2.7,3.1,42,0.00,,---,0.08,VWS V14.00,2013-01-20 20:40:00,
2013-01-20 15:45:00,45.1,23.4,29.68,NNW,338,3.8,3.8,42,0.00,,---,0.08,VWS V14.00,2013-01-20 20:45:00,
2013-01-20 15:50:00,44.8,23.1,29.68,North,0,0.9,2.9,42,0.00,,---,0.08,VWS V14.00,2013-01-20 20:50:00,
2013-01-20 15:55:00,44.6,22.9,29.68,SSW,202,0.0,2.9,42,0.00,,---,0.08,VWS V14.00,2013-01-20 20:55:00,
2013-01-20 16:00:00,44.4,22.2,29.68,SSW,202,4.9,4.9,41,0.00,,---,0.08,VWS V14.00,2013-01-20 21:00:00,
2013-01-20 16:05:00,43.5,19.6,29.68,SSE,158,1.6,1.6,38,0.00,,---,0.08,VWS V14.00,2013-01-20 21:05:00,
2013-01-20 16:10:00,42.8,16.4,29.71,WNW,292,3.4,3.6,34,0.00,,---,0.08,VWS V14.00,2013-01-20 21:10:00,
2013-01-20 16:15:00,42.4,16.1,29.71,SW,225,3.6,4.0,34,0.00,,---,0.08,VWS V14.00,2013-01-20 21:15:00,
2013-01-20 16:20:00,42.1,15.1,29.71,NNE,22,2.7,2.7,33,0.00,,---,0.08,VWS V14.00,2013-01-20 21:20:00,
2013-01-20 16:25:00,41.5,15.3,29.71,East,90,0.0,0.0,34,0.00,,---,0.08,VWS V14.00,2013-01-20 21:25:00,
2013-01-20 16:30:00,41.2,13.6,29.71,NNE,22,5.4,5.4,32,0.00,,---,0.08,VWS V14.00,2013-01-20 21:30:00,
2013-01-20 16:35:00,40.6,13.8,29.71,South,180,1.3,1.3,33,0.00,,---,0.08,VWS V14.00,2013-01-20 21:35:00,
2013-01-20 16:40:00,40.1,13.3,29.74,SSW,202,5.4,5.4,33,0.00,,---,0.08,VWS V14.00,2013-01-20 21:40:00,
2013-01-20 16:45:00,39.7,13.0,29.74,NW,315,10.5,10.5,33,0.00,,---,0.08,VWS V14.00,2013-01-20 21:45:00,
2013-01-20 16:50:00,39.4,12.0,29.74,SSE,158,7.6,7.6,32,0.00,,---,0.08,VWS V14.00,2013-01-20 21:50:00,
2013-01-20 16:55:00,38.8,12.9,29.74,SE,135,0.9,2.2,34,0.00,,---,0.08,VWS V14.00,2013-01-20 21:55:00,
2013-01-20 17:00:00,38.7,12.1,29.74,NE,45,5.4,8.1,33,0.00,,---,0.08,VWS V14.00,2013-01-20 22:00:00,
2013-01-20 17:05:00,38.1,14.2,29.74,South,180,3.8,4.0,37,0.00,,---,0.08,VWS V14.00,2013-01-20 22:05:00,
2013-01-20 17:10:00,37.6,14.9,29.76,SSE,158,2.0,2.0,39,0.00,,---,0.08,VWS V14.00,2013-01-20 22:10:00,
2013-01-20 17:15:00,37.0,14.4,29.76,East,90,3.8,3.8,39,0.00,,---,0.08,VWS V14.00,2013-01-20 22:15:00,
2013-01-20 17:20:00,36.7,14.6,29.76,ENE,68,3.4,3.4,40,0.00,,---,0.08,VWS V14.00,2013-01-20 22:20:00,
2013-01-20 17:25:00,36.1,14.2,29.76,SSW,202,2.0,3.4,40,0.00,,---,0.08,VWS V14.00,2013-01-20 22:25:00,
2013-01-20 17:30:00,35.8,13.8,29.76,SSE,158,3.4,5.4,40,0.00,,---,0.08,VWS V14.00,2013-01-20 22:30:00,
2013-01-20 17:35:00,35.4,14.1,29.76,SSE,158,3.4,3.8,41,0.00,,---,0.08,VWS V14.00,2013-01-20 22:35:00,
2013-01-20 17:40:00,35.2,13.9,29.79,NE,45,2.7,6.5,41,0.00,,---,0.08,VWS V14.00,2013-01-20 22:40:00,
2013-01-20 17:45:00,34.9,13.6,29.79,NNW,338,2.0,5.6,41,0.00,,---,0.08,VWS V14.00,2013-01-20 22:45:00,
2013-01-20 17:50:00,34.3,13.1,29.79,South,180,3.4,5.8,41,0.00,,---,0.08,VWS V14.00,2013-01-20 22:50:00,
2013-01-20 17:55:00,34.2,12.9,29.79,SE,135,2.9,7.6,41,0.00,,---,0.08,VWS V14.00,2013-01-20 22:55:00,
2013-01-20 18:00:00,34.0,12.8,29.79,ESE,112,1.6,2.7,41,0.00,,---,0.08,VWS V14.00,2013-01-20 23:00:00,
2013-01-20 18:05:00,33.6,13.0,29.79,SE,135,1.1,1.6,42,0.00,,---,0.08,VWS V14.00,2013-01-20 23:05:00,
2013-01-20 18:09:00,33.4,12.8,29.79,NE,45,2.5,2.9,42,0.00,,---,0.08,VWS V14.00,2013-01-20 23:09:00,
2013-01-20 18:14:00,33.1,12.5,29.79,WNW,292,3.1,3.1,42,0.00,,---,0.08,VWS V14.00,2013-01-20 23:14:00,
2013-01-20 18:20:00,32.9,12.9,29.79,NNE,22,3.4,3.8,43,0.00,,---,0.08,VWS V14.00,2013-01-20 23:20:00,
2013-01-20 18:25:00,32.7,12.2,29.82,ENE,68,3.4,6.0,42,0.00,,---,0.08,VWS V14.00,2013-01-20 23:25:00,
2013-01-20 18:30:00,32.4,12.4,29.82,NNE,22,3.4,7.4,43,0.00,,---,0.08,VWS V14.00,2013-01-20 23:30:00,
2013-01-20 18:35:00,32.2,12.2,29.82,SSE,158,2.5,4.0,43,0.00,,---,0.08,VWS V14.00,2013-01-20 23:35:00,
2013-01-20 18:40:00,31.8,11.9,29.82,WSW,248,2.2,5.4,43,0.00,,---,0.08,VWS V14.00,2013-01-20 23:40:00,
2013-01-20 18:45:00,31.5,11.6,29.82,SE,135,2.7,3.1,43,0.00,,---,0.08,VWS V14.00,2013-01-20 23:45:00,
2013-01-20 18:50:00,31.3,11.4,29.82,South,180,4.7,5.8,43,0.00,,---,0.08,VWS V14.00,2013-01-20 23:50:00,
2013-01-20 18:54:00,31.1,11.2,29.82,South,180,4.0,4.0,43,0.00,,---,0.08,VWS V14.00,2013-01-20 23:54:00,
2013-01-20 18:59:00,30.9,11.1,29.82,SSE,158,1.3,4.0,43,0.00,,---,0.08,VWS V14.00,2013-01-20 23:59:00,
2013-01-20 19:04:00,30.6,10.7,29.82,SSE,158,1.3,3.1,43,0.00,,---,0.08,VWS V14.00,2013-01-21 00:04:00,
2013-01-20 19:09:00,30.6,10.7,29.82,NE,45,2.2,2.2,43,0.00,,---,0.08,VWS V14.00,2013-01-21 00:09:00,
2013-01-20 19:14:00,30.2,10.4,29.82,NE,45,2.9,4.0,43,0.00,,---,0.08,VWS V14.00,2013-01-21 00:14:00,
2013-01-20 19:19:00,30.0,10.8,29.82,South,180,4.5,4.5,44,0.00,,---,0.08,VWS V14.00,2013-01-21 00:19:00,
2013-01-20 19:24:00,30.0,10.2,29.85,ENE,68,1.3,6.5,43,0.00,,---,0.08,VWS V14.00,2013-01-21 00:24:00,
2013-01-20 19:29:00,29.8,10.1,29.85,ESE,112,1.3,4.5,43,0.00,,---,0.08,VWS V14.00,2013-01-21 00:29:00,
2013-01-20 19:34:00,29.7,10.4,29.85,NE,45,5.8,5.8,44,0.00,,---,0.08,VWS V14.00,2013-01-21 00:34:00,
2013-01-20 19:39:00,29.5,10.3,29.85,SW,225,2.9,3.8,44,0.00,,---,0.08,VWS V14.00,2013-01-21 00:39:00,
2013-01-20 19:44:00,29.3,10.1,29.85,NW,315,4.5,4.5,44,0.00,,---,0.08,VWS V14.00,2013-01-21 00:44:00,
2013-01-20 19:49:00,29.1,9.9,29.85,WNW,292,2.2,6.3,44,0.00,,---,0.08,VWS V14.00,2013-01-21 00:49:00,
2013-01-20 19:54:00,28.9,9.8,29.85,SSW,202,3.1,3.8,44,0.00,,---,0.08,VWS V14.00,2013-01-21 00:54:00,
2013-01-20 19:59:00,28.8,9.6,29.85,SSE,158,4.3,4.3,44,0.00,,---,0.08,VWS V14.00,2013-01-21 00:59:00,
2013-01-20 20:04:00,28.6,8.9,29.85,South,180,6.0,6.5,43,0.00,,---,0.08,VWS V14.00,2013-01-21 01:04:00,
2013-01-20 20:09:00,28.6,8.9,29.88,ESE,112,2.0,7.4,43,0.00,,---,0.08,VWS V14.00,2013-01-21 01:09:00,
2013-01-20 20:14:00,28.4,9.3,29.88,SSW,202,2.0,2.7,44,0.00,,---,0.08,VWS V14.00,2013-01-21 01:14:00,
2013-01-20 20:19:00,28.2,9.1,29.88,WNW,292,6.3,6.7,44,0.00,,---,0.08,VWS V14.00,2013-01-21 01:19:00,
2013-01-20 20:24:00,28.0,8.9,29.88,NE,45,2.0,3.6,44,0.00,,---,0.08,VWS V14.00,2013-01-21 01:24:00,
2013-01-20 20:29:00,27.9,8.8,29.88,East,90,2.5,3.1,44,0.00,,---,0.08,VWS V14.00,2013-01-21 01:29:00,
2013-01-20 20:34:00,27.9,8.8,29.88,ESE,112,4.0,4.0,44,0.00,,---,0.08,VWS V14.00,2013-01-21 01:34:00,
2013-01-20 20:39:00,27.7,8.6,29.88,ESE,112,2.7,3.4,44,0.00,,---,0.08,VWS V14.00,2013-01-21 01:39:00,
2013-01-20 20:44:00,27.5,8.5,29.88,East,90,1.6,3.4,44,0.00,,---,0.08,VWS V14.00,2013-01-21 01:44:00,
2013-01-20 20:49:00,27.3,8.3,29.88,SSE,158,2.9,2.9,44,0.00,,---,0.08,VWS V14.00,2013-01-21 01:49:00,
2013-01-20 20:54:00,27.3,8.3,29.88,ENE,68,3.6,3.6,44,0.00,,---,0.08,VWS V14.00,2013-01-21 01:54:00,
2013-01-20 20:59:00,27.1,7.6,29.88,SW,225,1.3,4.7,43,0.00,,---,0.08,VWS V14.00,2013-01-21 01:59:00,
2013-01-20 21:04:00,27.1,7.6,29.88,ESE,112,1.3,2.7,43,0.00,,---,0.08,VWS V14.00,2013-01-21 02:04:00,
2013-01-20 21:09:00,27.0,7.5,29.91,North,0,4.9,4.9,43,0.00,,---,0.08,VWS V14.00,2013-01-21 02:09:00,
2013-01-20 21:14:00,27.0,7.5,29.91,SW,225,2.9,5.6,43,0.00,,---,0.08,VWS V14.00,2013-01-21 02:14:00,
2013-01-20 21:19:00,27.0,7.5,29.91,SE,135,2.2,4.9,43,0.00,,---,0.08,VWS V14.00,2013-01-21 02:19:00,
2013-01-20 21:24:00,26.8,7.3,29.88,ESE,112,3.1,4.0,43,0.00,,---,0.08,VWS V14.00,2013-01-21 02:24:00,
2013-01-20 21:29:00,26.6,7.1,29.88,West,270,2.5,3.1,43,0.00,,---,0.08,VWS V14.00,2013-01-21 02:29:00,
2013-01-20 21:34:00,26.4,7.0,29.88,WSW,248,7.6,7.6,43,0.00,,---,0.08,VWS V14.00,2013-01-21 02:34:00,
2013-01-20 21:39:00,26.2,6.8,29.91,North,0,0.0,2.2,43,0.00,,---,0.08,VWS V14.00,2013-01-21 02:39:00,
2013-01-20 21:44:00,26.2,6.8,29.91,SSE,158,5.4,5.4,43,0.00,,---,0.08,VWS V14.00,2013-01-21 02:44:00,
2013-01-20 21:49:00,26.2,6.8,29.91,SW,225,2.5,2.5,43,0.00,,---,0.08,VWS V14.00,2013-01-21 02:49:00,
2013-01-20 21:54:00,26.2,6.3,29.91,East,90,1.6,4.7,42,0.00,,---,0.08,VWS V14.00,2013-01-21 02:54:00,
2013-01-20 21:59:00,26.2,6.3,29.91,SSE,158,3.4,3.4,42,0.00,,---,0.08,VWS V14.00,2013-01-21 02:59:00,
2013-01-20 22:04:00,26.2,6.3,29.91,South,180,5.4,6.3,42,0.00,,---,0.08,VWS V14.00,2013-01-21 03:04:00,
2013-01-20 22:09:00,26.2,6.3,29.91,NW,315,2.5,4.3,42,0.00,,---,0.08,VWS V14.00,2013-01-21 03:09:00,
2013-01-20 22:14:00,26.1,6.1,29.91,SSW,202,1.1,4.3,42,0.00,,---,0.08,VWS V14.00,2013-01-21 03:14:00,
2013-01-20 22:19:00,26.1,6.1,29.91,WSW,248,10.1,10.1,42,0.00,,---,0.08,VWS V14.00,2013-01-21 03:19:00,
2013-01-20 22:24:00,26.1,6.1,29.91,South,180,7.4,7.4,42,0.00,,---,0.08,VWS V14.00,2013-01-21 03:24:00,
2013-01-20 22:29:00,26.1,6.1,29.91,North,0,3.4,9.4,42,0.00,,---,0.08,VWS V14.00,2013-01-21 03:29:00,
2013-01-20 22:34:00,26.1,6.1,29.91,SW,225,5.4,5.4,42,0.00,,---,0.08,VWS V14.00,2013-01-21 03:34:00,
2013-01-20 22:39:00,26.1,5.6,29.91,SSW,202,7.6,7.6,41,0.00,,---,0.08,VWS V14.00,2013-01-21 03:39:00,
2013-01-20 22:44:00,25.9,5.4,29.91,South,180,8.7,8.7,41,0.00,,---,0.08,VWS V14.00,2013-01-21 03:44:00,
2013-01-20 22:49:00,25.7,5.3,29.91,West,270,3.1,6.3,41,0.00,,---,0.08,VWS V14.00,2013-01-21 03:49:00,
2013-01-20 22:54:00,25.7,5.3,29.94,SW,225,5.8,5.8,41,0.00,,---,0.08,VWS V14.00,2013-01-21 03:54:00,
2013-01-20 22:59:00,25.7,5.3,29.94,WSW,248,3.4,10.5,41,0.00,,---,0.08,VWS V14.00,2013-01-21 03:59:00,
2013-01-20 23:04:00,25.5,5.1,29.94,WSW,248,6.0,7.4,41,0.00,,---,0.08,VWS V14.00,2013-01-21 04:04:00,
2013-01-20 23:09:00,25.5,5.1,29.94,ESE,112,3.8,5.4,41,0.00,,---,0.08,VWS V14.00,2013-01-21 04:09:00,
2013-01-20 23:14:00,25.3,4.9,29.94,ESE,112,3.4,3.4,41,0.00,,---,0.08,VWS V14.00,2013-01-21 04:14:00,
2013-01-20 23:19:00,25.3,5.5,29.94,SSE,158,1.1,2.2,42,0.00,,---,0.08,VWS V14.00,2013-01-21 04:19:00,
2013-01-20 23:24:00,25.3,5.5,29.94,NNE,22,3.6,3.6,42,0.00,,---,0.08,VWS V14.00,2013-01-21 04:24:00,
2013-01-20 23:29:00,25.2,5.3,29.94,SW,225,4.9,5.8,42,0.00,,---,0.08,VWS V14.00,2013-01-21 04:29:00,
2013-01-20 23:34:00,24.8,5.0,29.94,SW,225,1.3,1.3,42,0.00,,---,0.08,VWS V14.00,2013-01-21 04:34:00,
2013-01-20 23:39:00,24.8,5.0,29.94,SE,135,1.3,2.5,42,0.00,,---,0.08,VWS V14.00,2013-01-21 04:39:00,
2013-01-20 23:44:00,24.8,5.0,29.94,SSW,202,3.4,6.0,42,0.00,,---,0.08,VWS V14.00,2013-01-21 04:44:00,
2013-01-20 23:49:00,24.6,5.3,29.94,NNE,22,1.3,4.9,43,0.00,,---,0.08,VWS V14.00,2013-01-21 04:49:00,
2013-01-20 23:54:00,24.6,5.3,29.94,SSE,158,3.1,3.1,43,0.00,,---,0.08,VWS V14.00,2013-01-21 04:54:00,
2013-01-20 23:59:00,24.4,5.2,29.94,SE,135,3.8,3.8,43,0.00,,---,0.08,VWS V14.00,2013-01-21 04:59:00,